Time;durP1;ratioP1;P1;durP2;ratioP2;P2;SDS_P1;SDS_P2;PMS_P1;PMS_P2;Temp;Humidity;BMP_temperature;BMP_pressure;BME280_temperature;BME280_humidity;BME280_pressure;Samples;Min_cycle;Max_cycle;Signal;HPM_P1;HPM_P2
2022/03/11 05:09:55;;;;;;;;;;;;;;;6.04;60.10;96999.72;4254479;27;10394;-65
2022/03/11 05:11:57;;;;;;;;;;;;;;;6.10;60.12;96997.25;4229580;27;5690;-65
2022/03/11 05:13:59;;;;;;;;;;;;;;;6.14;59.92;97003.03;4236641;27;5671;-65
2022/03/11 05:16:00;;;;;;;;;;;;;;;6.20;59.84;97002.38;4231414;28;5769;-66
2022/03/11 05:18:02;;;;;;;;;;;;;;;6.24;60.14;97003.72;4227406;27;5675;-65
2022/03/11 05:20:05;;;;;;;;;;;;;;;6.28;60.05;97005.03;4215907;28;5712;-66
2022/03/11 05:22:07;;;;;;;;;;;;;;;6.29;59.91;96996.16;4213836;28;5705;-65
2022/03/11 05:24:08;;;;;;;;;;;;;;;6.30;60.09;96996.97;4214103;28;5704;-66
2022/03/11 05:26:24;;;;;;;;;;;;;;;6.31;60.04;96996.00;4233619;27;5813;-66
2022/03/11 05:28:26;;;;;;;;;;;;;;;6.36;60.12;97012.94;4213792;28;5712;-66
2022/03/11 05:30:28;;;;;;;;;;;;;;;6.40;60.30;97008.16;4213498;28;5685;-66
2022/03/11 05:32:32;;;;;;;;;;;;;;;6.40;60.09;97008.16;4213351;28;5827;-67
2022/03/11 05:34:37;;;;;;;;;;;;;;;6.38;60.48;97004.88;4213339;28;5701;-66
2022/03/11 05:36:39;;;;;;;;;;;;;;;6.37;60.50;97003.25;4227707;28;5682;-67
2022/03/11 05:38:41;;;;;;;;;;;;;;;6.33;61.23;97007.16;4230967;28;5700;-66
2022/03/11 05:40:46;;;;;;;;;;;;;;;6.10;62.74;97010.38;4213525;28;5774;-65
2022/03/11 05:42:48;;;;;;;;;;;;;;;6.20;61.57;97009.44;4220654;27;5671;-66
2022/03/11 05:44:50;;;;;;;;;;;;;;;5.71;64.63;97011.88;4230499;28;5835;-66
2022/03/11 05:46:52;;;;;;;;;;;;;;;5.53;65.70;97014.56;4230719;28;6233;-65
2022/03/11 05:48:53;;;;;;;;;;;;;;;5.57;64.80;97018.53;4224885;28;7174;-67
2022/03/11 05:50:55;;;;;;;;;;;;;;;5.57;66.44;97021.16;4213918;28;5868;-67
2022/03/11 05:52:57;;;;;;;;;;;;;;;5.47;66.95;97017.81;4225919;28;5671;-68
2022/03/11 05:54:59;;;;;;;;;;;;;;;5.31;68.12;97015.06;4224678;28;5760;-68
2022/03/11 05:57:01;;;;;;;;;;;;;;;5.53;66.57;97014.56;4212992;28;5799;-67
2022/03/11 05:59:04;;;;;;;;;;;;;;;5.65;65.68;97013.28;4218254;28;5775;-68
2022/03/11 06:01:06;;;;;;;;;;;;;;;5.91;64.31;97015.09;4214645;27;5921;-68
2022/03/11 06:03:08;;;;;;;;;;;;;;;5.97;65.10;97022.31;4230355;27;6808;-68
2022/03/11 06:05:10;;;;;;;;;;;;;;;6.09;63.53;97021.03;4213699;28;5780;-68
2022/03/11 06:07:12;;;;;;;;;;;;;;;6.18;63.51;97025.34;4214575;28;5684;-68
2022/03/11 06:09:14;;;;;;;;;;;;;;;6.14;64.01;97029.28;4219070;28;6028;-68
2022/03/11 06:11:16;;;;;;;;;;;;;;;5.88;64.75;97026.69;4225498;28;5806;-68
2022/03/11 06:13:17;;;;;;;;;;;;;;;5.52;65.72;97031.25;4201503;28;5708;-68
2022/03/11 06:15:19;;;;;;;;;;;;;;;5.38;65.98;97031.84;4200249;28;5807;-69
2022/03/11 06:17:21;;;;;;;;;;;;;;;5.34;65.85;97033.16;4213650;28;5902;-68
2022/03/11 06:19:22;;;;;;;;;;;;;;;5.31;66.11;97030.81;4202889;28;5816;-68
2022/03/11 06:21:24;;;;;;;;;;;;;;;5.46;66.17;97024.03;4210708;28;5634;-68
2022/03/11 06:23:26;;;;;;;;;;;;;;;5.65;64.70;97028.22;4225553;28;5696;-68
2022/03/11 06:25:28;;;;;;;;;;;;;;;5.91;63.64;97021.16;4203416;28;5704;-68
2022/03/11 06:27:29;;;;;;;;;;;;;;;6.02;63.57;97015.63;4210909;28;6578;-69
2022/03/11 06:29:31;;;;;;;;;;;;;;;6.10;62.85;97015.63;4228014;28;5748;-68
2022/03/11 06:31:34;;;;;;;;;;;;;;;6.18;62.65;97016.66;4229367;28;5675;-68
2022/03/11 06:33:36;;;;;;;;;;;;;;;5.94;64.31;97012.16;4228847;28;5650;-68
2022/03/11 06:35:37;;;;;;;;;;;;;;;5.69;65.09;97011.19;4235682;28;5644;-68
2022/03/11 06:37:40;;;;;;;;;;;;;;;5.72;64.69;97003.00;4235533;28;6955;-68
2022/03/11 06:39:42;;;;;;;;;;;;;;;5.80;64.07;97011.75;4235541;28;5697;-67
2022/03/11 06:41:44;;;;;;;;;;;;;;;6.02;63.42;97013.00;4235428;28;5642;-68
2022/03/11 06:43:45;;;;;;;;;;;;;;;6.01;63.36;97010.53;4232126;28;5689;-68
2022/03/11 06:45:47;;;;;;;;;;;;;;;5.93;63.32;97010.50;4222802;28;5835;-67
2022/03/11 06:47:49;;;;;;;;;;;;;;;6.08;63.05;97014.97;4202013;28;5826;-68
2022/03/11 06:49:51;;;;;;;;;;;;;;;6.24;62.67;97016.84;4204318;28;6009;-68
2022/03/11 06:51:53;;;;;;;;;;;;;;;6.24;62.51;97019.47;4203206;28;6393;-69
2022/03/11 06:53:54;;;;;;;;;;;;;;;6.19;62.84;97021.72;4200888;28;5708;-68
2022/03/11 06:55:56;;;;;;;;;;;;;;;6.18;62.98;97024.53;4209860;28;5866;-68
2022/03/11 06:57:59;;;;;;;;;;;;;;;6.16;63.18;97026.50;4205084;28;5680;-67
2022/03/11 07:00:03;;;;;;;;;;;;;;;6.05;64.61;97028.44;4209109;28;5705;-67
2022/03/11 07:02:05;;;;;;;;;;;;;;;6.16;63.54;97032.56;4201354;28;5715;-67
2022/03/11 07:04:07;;;;;;;;;;;;;;;6.24;63.55;97044.91;4207315;28;6348;-71
2022/03/11 07:06:09;;;;;;;;;;;;;;;6.28;63.37;97036.53;4202253;28;5675;-67
2022/03/11 07:08:14;;;;;;;;;;;;;;;6.22;63.72;97037.16;4208459;28;5893;-67
2022/03/11 07:10:16;;;;;;;;;;;;;;;6.32;63.31;97042.28;4214741;28;5655;-67
2022/03/11 07:12:18;;;;;;;;;;;;;;;6.31;64.18;97038.81;4232144;28;5671;-65
2022/03/11 07:14:19;;;;;;;;;;;;;;;6.29;64.27;97043.44;4220881;28;5755;-63
2022/03/11 07:16:21;;;;;;;;;;;;;;;6.18;64.13;97035.84;4199861;28;5626;-62
2022/03/11 07:18:23;;;;;;;;;;;;;;;6.16;64.42;97040.44;4217646;28;5684;-60
2022/03/11 07:20:25;;;;;;;;;;;;;;;5.83;65.38;97042.91;4217749;28;5683;-62
2022/03/11 07:22:48;;;;;;;;;;;;;;;6.02;66.08;97041.06;4216959;28;5672;-62
2022/03/11 07:24:49;;;;;;;;;;;;;;;6.07;66.12;97033.50;4217962;28;6106;-64
2022/03/11 07:26:51;;;;;;;;;;;;;;;6.20;66.16;97035.69;4225862;28;5684;-64
2022/03/11 07:28:53;;;;;;;;;;;;;;;6.18;66.09;97033.22;4222301;28;5851;-64
2022/03/11 07:31:01;;;;;;;;;;;;;;;6.27;66.07;97042.78;4214870;28;5746;-64
2022/03/11 07:33:03;;;;;;;;;;;;;;;6.34;66.41;97045.56;4204782;28;5846;-61
2022/03/11 07:35:05;;;;;;;;;;;;;;;6.38;66.38;97033.78;4207464;28;5850;-64
2022/03/11 07:37:11;;;;;;;;;;;;;;;6.33;67.12;97031.59;4207410;28;5806;-65
2022/03/11 07:39:13;;;;;;;;;;;;;;;6.21;68.24;97034.69;4205980;28;5841;-64
2022/03/11 07:41:16;;;;;;;;;;;;;;;6.10;69.14;97033.19;4214132;28;5839;-65
2022/03/11 07:43:17;;;;;;;;;;;;;;;6.37;67.25;97035.56;4209473;28;5684;-64
2022/03/11 07:45:20;;;;;;;;;;;;;;;6.30;68.50;97036.38;4202106;28;5707;-65
2022/03/11 07:47:22;;;;;;;;;;;;;;;6.32;68.42;97029.16;4200234;28;5708;-64
2022/03/11 07:49:24;;;;;;;;;;;;;;;6.39;68.23;97030.97;4201080;28;5805;-64
2022/03/11 07:51:26;;;;;;;;;;;;;;;6.61;66.99;97031.34;4217486;28;6416;-65
2022/03/11 07:53:28;;;;;;;;;;;;;;;6.71;67.15;97026.75;4220376;28;5693;-64
2022/03/11 07:55:30;;;;;;;;;;;;;;;6.70;67.35;97030.38;4200590;28;5790;-64
2022/03/11 07:57:32;;;;;;;;;;;;;;;6.78;66.48;97033.00;4217137;28;5676;-65
2022/03/11 07:59:34;;;;;;;;;;;;;;;6.85;66.53;97034.00;4216708;28;5772;-65
2022/03/11 08:01:36;;;;;;;;;;;;;;;6.84;68.46;97027.09;4208420;28;5903;-64
2022/03/11 08:03:40;;;;;;;;;;;;;;;6.91;67.47;97020.22;4202435;28;5973;-64
2022/03/11 08:05:42;;;;;;;;;;;;;;;7.01;67.59;97015.56;4209984;28;5663;-64
2022/03/11 08:07:48;;;;;;;;;;;;;;;7.07;67.89;97015.91;4231355;28;5669;-64
2022/03/11 08:09:50;;;;;;;;;;;;;;;7.11;66.99;97018.03;4199775;28;5775;-64
2022/03/11 08:11:52;;;;;;;;;;;;;;;7.16;67.30;97025.44;4211008;28;5688;-64
2022/03/11 08:13:54;;;;;;;;;;;;;;;7.10;67.59;97020.84;4204069;28;5740;-64
2022/03/11 08:15:55;;;;;;;;;;;;;;;7.03;67.43;97020.69;4218075;28;5642;-64
2022/03/11 08:17:57;;;;;;;;;;;;;;;7.05;67.40;97025.78;4209849;28;5687;-64
2022/03/11 08:19:59;;;;;;;;;;;;;;;7.03;67.72;97022.50;4205096;28;5774;-64
2022/03/11 08:22:02;;;;;;;;;;;;;;;7.04;67.90;97021.50;4196675;28;5794;-64
2022/03/11 08:24:05;;;;;;;;;;;;;;;6.98;68.28;97028.25;4204358;28;5709;-65
2022/03/11 08:26:06;;;;;;;;;;;;;;;6.96;68.13;97015.25;4209651;28;5691;-64
2022/03/11 08:28:10;;;;;;;;;;;;;;;6.94;68.66;97014.63;4213340;28;5894;-64
2022/03/11 08:30:12;;;;;;;;;;;;;;;6.96;67.92;97004.75;4200875;28;5652;-65
2022/03/11 08:32:15;;;;;;;;;;;;;;;7.02;68.09;97008.50;4199018;28;5734;-65
2022/03/11 08:34:17;;;;;;;;;;;;;;;7.09;67.58;97004.25;4211413;28;6880;-65
2022/03/11 08:36:18;;;;;;;;;;;;;;;7.07;68.08;97010.66;4214198;28;6063;-64
2022/03/11 08:38:21;;;;;;;;;;;;;;;7.09;67.47;97003.44;4212916;28;5964;-64
2022/03/11 08:40:24;;;;;;;;;;;;;;;7.18;67.05;97002.44;4207263;28;6475;-64
2022/03/11 08:42:25;;;;;;;;;;;;;;;7.22;66.35;97006.38;4218194;28;6580;-64
2022/03/11 08:44:27;;;;;;;;;;;;;;;7.26;66.03;97005.06;4207955;28;5799;-64
2022/03/11 08:46:30;;;;;;;;;;;;;;;7.17;63.56;97011.31;4199592;28;5888;-64
2022/03/11 08:48:34;;;;;;;;;;;;;;;7.04;63.35;97018.88;4226180;28;5759;-64
2022/03/11 08:50:36;;;;;;;;;;;;;;;7.09;63.95;97012.13;4200378;28;5775;-64
2022/03/11 08:52:38;;;;;;;;;;;;;;;7.11;64.65;97022.47;4196424;28;5823;-64
2022/03/11 08:54:40;;;;;;;;;;;;;;;6.96;65.24;97025.78;4196359;28;6708;-65
2022/03/11 08:56:41;;;;;;;;;;;;;;;6.96;65.82;97023.16;4195718;28;5796;-64
2022/03/11 08:58:43;;;;;;;;;;;;;;;7.07;65.15;97008.84;4197699;28;5835;-65
2022/03/11 09:00:50;;;;;;;;;;;;;;;7.15;64.88;96995.72;4201994;28;5740;-65
2022/03/11 09:02:52;;;;;;;;;;;;;;;7.12;64.82;97000.47;4196172;28;5890;-64
2022/03/11 09:04:54;;;;;;;;;;;;;;;7.20;64.22;97000.44;4196612;28;5839;-64
2022/03/11 09:06:55;;;;;;;;;;;;;;;7.26;63.56;96999.81;4196908;28;5790;-64
2022/03/11 09:08:57;;;;;;;;;;;;;;;7.24;63.74;96996.50;4208211;28;5774;-65
2022/03/11 09:10:59;;;;;;;;;;;;;;;7.20;63.60;97003.09;4213463;28;5749;-64
2022/03/11 09:13:01;;;;;;;;;;;;;;;7.26;63.26;96999.81;4195668;28;5803;-64
2022/03/11 09:15:04;;;;;;;;;;;;;;;7.31;63.47;96992.22;4204058;28;5875;-64
2022/03/11 09:17:07;;;;;;;;;;;;;;;7.44;63.54;96994.31;4195998;28;5950;-64
2022/03/11 09:19:09;;;;;;;;;;;;;;;7.52;63.08;96995.13;4200255;28;5782;-64
2022/03/11 09:21:14;;;;;;;;;;;;;;;7.51;63.34;96988.22;4203660;28;5879;-64
2022/03/11 09:23:16;;;;;;;;;;;;;;;7.43;63.86;96977.72;4210511;28;5790;-64
2022/03/11 09:25:18;;;;;;;;;;;;;;;7.55;63.55;96988.69;4228441;28;5725;-64
2022/03/11 09:27:23;;;;;;;;;;;;;;;7.32;63.63;96983.34;4197983;28;5779;-65
2022/03/11 09:29:28;;;;;;;;;;;;;;;7.42;63.48;96980.53;4199000;28;5908;-64
2022/03/11 09:31:30;;;;;;;;;;;;;;;7.46;63.12;96966.84;4200643;28;5811;-64
2022/03/11 09:33:32;;;;;;;;;;;;;;;7.37;63.48;96967.88;4195949;28;6261;-64
2022/03/11 09:35:34;;;;;;;;;;;;;;;7.49;63.80;96957.81;4198014;28;5778;-64
2022/03/11 09:37:36;;;;;;;;;;;;;;;7.65;63.51;96952.50;4206043;28;5782;-64
2022/03/11 09:39:38;;;;;;;;;;;;;;;7.74;63.05;96945.38;4213359;28;5773;-64
2022/03/11 09:41:40;;;;;;;;;;;;;;;7.74;63.46;96945.38;4203837;28;5791;-64
2022/03/11 09:43:42;;;;;;;;;;;;;;;7.83;63.66;96939.09;4213321;28;5758;-64
2022/03/11 09:45:45;;;;;;;;;;;;;;;8.02;62.92;96933.38;4215099;28;5895;-64
2022/03/11 09:47:47;;;;;;;;;;;;;;;8.15;63.04;96935.44;4216037;28;5766;-64
2022/03/11 09:49:49;;;;;;;;;;;;;;;8.26;62.86;96934.22;4216725;28;5794;-64
2022/03/11 09:51:51;;;;;;;;;;;;;;;8.40;62.40;96931.69;4215443;28;5774;-64
2022/03/11 09:53:53;;;;;;;;;;;;;;;8.39;61.69;96937.16;4216288;28;5758;-64
2022/03/11 09:55:55;;;;;;;;;;;;;;;8.33;61.98;96924.63;4201452;28;5126;-64
2022/03/11 09:57:57;;;;;;;;;;;;;;;8.33;62.02;96924.63;4198857;28;7777;-64
2022/03/11 09:59:59;;;;;;;;;;;;;;;8.40;61.17;96922.97;4205444;28;5782;-64
2022/03/11 10:02:00;;;;;;;;;;;;;;;8.35;60.63;96918.22;4215386;28;5762;-66
2022/03/11 10:04:03;;;;;;;;;;;;;;;8.35;60.79;96906.88;4213911;28;5806;-64
2022/03/11 10:06:05;;;;;;;;;;;;;;;8.23;60.38;96900.34;4198986;28;5878;-64
2022/03/11 10:08:07;;;;;;;;;;;;;;;8.21;60.77;96895.25;4202081;28;5886;-65
2022/03/11 10:10:16;;;;;;;;;;;;;;;8.39;61.09;96902.91;4231950;28;5752;-64
2022/03/11 10:12:43;;;;;;;;;;;;;;;8.55;60.60;96897.47;4198820;28;5857;-65
2022/03/11 10:14:55;;;;;;;;;;;;;;;8.65;59.28;96895.41;4203953;28;5798;-65
2022/03/11 10:16:58;;;;;;;;;;;;;;;8.69;59.46;96893.25;4200367;28;5741;-64
2022/03/11 10:19:03;;;;;;;;;;;;;;;8.81;60.63;96883.09;4215936;28;6495;-65
2022/03/11 10:21:08;;;;;;;;;;;;;;;8.97;63.02;96882.94;4204924;28;5836;-64
2022/03/11 10:23:13;;;;;;;;;;;;;;;9.11;61.88;96876.84;4198486;28;5840;-64
2022/03/11 10:25:19;;;;;;;;;;;;;;;9.22;60.02;96873.75;4198841;28;5782;-64
2022/03/11 10:27:23;;;;;;;;;;;;;;;9.25;60.25;96868.09;4204172;28;5782;-64
2022/03/11 10:29:40;;;;;;;;;;;;;;;9.34;59.70;96856.47;4215741;28;5849;-64
2022/03/11 10:31:43;;;;;;;;;;;;;;;9.52;59.90;96855.25;4215806;28;5762;-63
2022/03/11 10:33:46;;;;;;;;;;;;;;;9.64;59.25;96853.78;4215712;28;5838;-63
2022/03/11 10:35:48;;;;;;;;;;;;;;;9.74;59.22;96856.09;4215831;28;5885;-62
2022/03/11 10:38:10;;;;;;;;;;;;;;;9.88;58.33;96855.25;4215681;28;5927;-62
2022/03/11 10:40:12;;;;;;;;;;;;;;;9.75;59.25;96863.84;4215733;28;5842;-63
2022/03/11 10:42:25;;;;;;;;;;;;;;;9.48;63.02;96856.63;4216092;28;5767;-63
2022/03/11 10:44:28;;;;;;;;;;;;;;;9.50;62.83;96854.59;4215429;28;5730;-63
2022/03/11 10:46:30;;;;;;;;;;;;;;;9.37;62.84;96855.25;4215515;28;5910;-64
2022/03/11 10:48:51;;;;;;;;;;;;;;;9.36;62.65;96850.19;4215472;28;5754;-63
2022/03/11 10:50:53;;;;;;;;;;;;;;;9.53;61.89;96844.53;4213844;28;5737;-63
2022/03/11 10:52:56;;;;;;;;;;;;;;;9.54;61.83;96846.16;4210658;28;5831;-63
2022/03/11 10:55:14;;;;;;;;;;;;;;;9.59;62.46;96842.94;4199777;28;6190;-64
2022/03/11 10:57:16;;;;;;;;;;;;;;;9.17;63.25;96844.44;4198496;28;5799;-63
2022/03/11 10:59:21;;;;;;;;;;;;;;;9.12;63.20;96844.19;4196930;28;5811;-57
2022/03/11 11:01:37;;;;;;;;;;;;;;;9.09;63.16;96847.19;4198137;28;5787;-58
2022/03/11 11:03:40;;;;;;;;;;;;;;;9.02;63.03;96846.28;4199514;28;5870;-57
2022/03/11 11:05:42;;;;;;;;;;;;;;;9.21;62.44;96844.91;4198176;28;5803;-57
2022/03/11 11:07:45;;;;;;;;;;;;;;;9.21;62.58;96851.00;4201155;28;5857;-57
2022/03/11 11:09:47;;;;;;;;;;;;;;;9.01;62.92;96857.84;4214831;28;5774;-57
2022/03/11 11:11:51;;;;;;;;;;;;;;;8.44;64.17;96858.38;4212332;28;5754;-57
2022/03/11 11:13:53;;;;;;;;;;;;;;;8.71;62.95;96857.78;4207536;28;5862;-57
2022/03/11 11:16:00;;;;;;;;;;;;;;;8.54;63.85;96845.78;4213830;28;5749;-58
2022/03/11 11:18:11;;;;;;;;;;;;;;;8.53;64.62;96856.50;4198468;28;6460;-65
2022/03/11 11:20:18;;;;;;;;;;;;;;;8.52;62.69;96855.69;4197064;28;5831;-65
2022/03/11 11:22:22;;;;;;;;;;;;;;;8.55;62.58;96855.31;4198542;28;5782;-65
2022/03/11 11:24:25;;;;;;;;;;;;;;;8.55;62.80;96844.78;4206474;28;5777;-65
2022/03/11 11:26:26;;;;;;;;;;;;;;;8.69;63.27;96843.97;4217868;28;5679;-65
2022/03/11 11:28:28;;;;;;;;;;;;;;;8.36;64.16;96829.47;4205426;28;5791;-65
2022/03/11 11:30:31;;;;;;;;;;;;;;;8.65;63.65;96826.09;4228464;28;5765;-65
2022/03/11 11:32:35;;;;;;;;;;;;;;;8.90;62.97;96826.66;4234689;28;5666;-65
2022/03/11 11:34:40;;;;;;;;;;;;;;;9.04;62.77;96820.53;4234679;28;5696;-65
2022/03/11 11:36:46;;;;;;;;;;;;;;;8.89;62.98;96823.19;4234670;28;5677;-65
2022/03/11 11:38:50;;;;;;;;;;;;;;;9.03;62.65;96822.38;4234144;28;5769;-65
2022/03/11 11:40:53;;;;;;;;;;;;;;;9.24;62.24;96818.97;4218085;28;5973;-65
2022/03/11 11:43:25;;;;;;;;;;;;;;;9.37;61.16;96815.69;4213842;28;5703;-65
2022/03/11 11:45:43;;;;;;;;;;;;;;;9.46;59.13;96811.13;4213814;28;5695;-65
2022/03/11 11:47:48;;;;;;;;;;;;;;;9.54;59.69;96813.66;4204122;28;5692;-65
2022/03/11 11:49:55;;;;;;;;;;;;;;;9.50;59.23;96801.81;4200946;28;5795;-65
2022/03/11 11:51:58;;;;;;;;;;;;;;;9.43;59.30;96803.59;4200835;28;5695;-65
2022/03/11 11:54:13;;;;;;;;;;;;;;;9.38;59.15;96803.31;4200744;28;5795;-65
2022/03/11 11:56:27;;;;;;;;;;;;;;;9.42;59.17;96796.69;4200228;28;5102;-65
2022/03/11 11:58:30;;;;;;;;;;;;;;;9.35;58.20;96799.22;4212464;28;5674;-65
2022/03/11 12:00:37;;;;;;;;;;;;;;;9.27;58.81;96797.50;4215570;28;5667;-65
2022/03/11 12:02:41;;;;;;;;;;;;;;;9.10;58.99;96804.00;4217277;28;5791;-65
2022/03/11 12:04:43;;;;;;;;;;;;;;;9.12;59.17;96804.63;4214955;28;5687;-65
2022/03/11 12:07:04;;;;;;;;;;;;;;;8.95;59.20;96795.28;4206831;28;5695;-65
2022/03/11 12:09:06;;;;;;;;;;;;;;;8.99;59.26;96791.28;4211302;28;5930;-66
2022/03/11 12:11:07;;;;;;;;;;;;;;;8.82;59.72;96784.53;4214036;28;6777;-65
2022/03/11 12:13:09;;;;;;;;;;;;;;;8.96;59.44;96778.47;4222324;28;5818;-65
2022/03/11 12:15:14;;;;;;;;;;;;;;;8.98;59.83;96777.28;4207897;28;5704;-65
2022/03/11 12:17:37;;;;;;;;;;;;;;;8.88;60.35;96775.91;4200539;28;5670;-67
2022/03/11 12:19:46;;;;;;;;;;;;;;;8.67;60.70;96777.47;4201884;28;5712;-65
2022/03/11 12:21:48;;;;;;;;;;;;;;;8.71;60.27;96772.63;4200128;28;6496;-65
2022/03/11 12:23:50;;;;;;;;;;;;;;;8.73;59.96;96768.84;4199826;28;5867;-66
2022/03/11 12:25:57;;;;;;;;;;;;;;;8.86;60.33;96773.47;4200337;28;5685;-65
2022/03/11 12:28:16;;;;;;;;;;;;;;;9.09;59.61;96765.44;4199879;28;5687;-65
2022/03/11 12:30:19;;;;;;;;;;;;;;;9.25;59.11;96767.84;4199806;28;5704;-65
2022/03/11 12:32:21;;;;;;;;;;;;;;;9.31;58.49;96771.59;4199843;28;5778;-65
2022/03/11 12:34:24;;;;;;;;;;;;;;;9.38;58.11;96769.00;4199926;28;5700;-66
2022/03/11 12:36:31;;;;;;;;;;;;;;;9.50;57.76;96764.88;4199821;28;5707;-66
2022/03/11 12:38:37;;;;;;;;;;;;;;;9.25;57.16;96754.66;4200070;28;6361;-64
2022/03/11 12:40:39;;;;;;;;;;;;;;;9.41;57.53;96761.56;4200217;28;6394;-64
2022/03/11 12:42:42;;;;;;;;;;;;;;;9.46;57.73;96768.91;4208614;28;5771;-64
2022/03/11 12:44:47;;;;;;;;;;;;;;;9.67;57.61;96761.00;4216607;28;5786;-64
2022/03/11 12:46:49;;;;;;;;;;;;;;;9.70;57.53;96763.28;4216657;28;5656;-65
2022/03/11 12:48:51;;;;;;;;;;;;;;;9.85;57.54;96755.28;4216811;28;5734;-64
2022/03/11 12:50:53;;;;;;;;;;;;;;;9.82;57.86;96756.47;4216447;28;5667;-64
2022/03/11 12:52:57;;;;;;;;;;;;;;;9.81;58.04;96754.84;4216678;28;5866;-64
2022/03/11 12:54:59;;;;;;;;;;;;;;;9.78;58.42;96755.22;4212541;28;6378;-65
2022/03/11 12:57:00;;;;;;;;;;;;;;;9.71;57.78;96751.69;4207777;28;5886;-65
2022/03/11 12:59:05;;;;;;;;;;;;;;;9.74;58.11;96748.72;4214823;28;6579;-65
2022/03/11 13:01:11;;;;;;;;;;;;;;;9.86;57.33;96752.47;4225923;28;5833;-64
2022/03/11 13:03:16;;;;;;;;;;;;;;;9.73;57.84;96747.03;4206991;28;5762;-64
2022/03/11 13:05:22;;;;;;;;;;;;;;;9.68;57.62;96746.81;4212020;28;5774;-63
2022/03/11 13:07:29;;;;;;;;;;;;;;;9.75;57.84;96747.69;4199197;28;5779;-64
2022/03/11 13:09:31;;;;;;;;;;;;;;;9.82;57.91;96740.63;4195674;28;5791;-64
2022/03/11 13:11:33;;;;;;;;;;;;;;;9.85;57.83;96740.28;4212520;28;5757;-65
2022/03/11 13:13:35;;;;;;;;;;;;;;;9.79;58.21;96735.75;4225362;28;5737;-65
2022/03/11 13:15:38;;;;;;;;;;;;;;;9.89;57.79;96730.97;4203962;28;5788;-65
2022/03/11 13:17:44;;;;;;;;;;;;;;;9.89;58.18;96736.25;4214207;28;5770;-65
2022/03/11 13:19:46;;;;;;;;;;;;;;;10.06;57.79;96735.97;4211809;28;5788;-65
2022/03/11 13:21:49;;;;;;;;;;;;;;;9.98;57.54;96736.13;4212810;28;5786;-65
2022/03/11 13:23:50;;;;;;;;;;;;;;;10.07;56.72;96732.31;4220141;28;5787;-65
2022/03/11 13:26:01;;;;;;;;;;;;;;;10.11;57.30;96738.88;4208798;28;5876;-64
2022/03/11 13:28:04;;;;;;;;;;;;;;;10.14;56.43;96736.66;4215040;28;5807;-64
2022/03/11 13:30:06;;;;;;;;;;;;;;;10.17;56.38;96741.53;4218878;28;5806;-65
2022/03/11 13:32:09;;;;;;;;;;;;;;;10.12;56.39;96737.84;4218618;28;6415;-64
2022/03/11 13:34:11;;;;;;;;;;;;;;;10.09;56.52;96738.25;4232613;28;5757;-64
2022/03/11 13:36:43;;;;;;;;;;;;;;;10.13;55.75;96736.84;4233294;28;5843;-65
2022/03/11 13:39:07;;;;;;;;;;;;;;;10.04;55.39;96737.97;4222275;28;5773;-64
2022/03/11 13:41:11;;;;;;;;;;;;;;;10.12;54.89;96743.13;4216741;28;5765;-65
2022/03/11 13:43:13;;;;;;;;;;;;;;;10.19;55.11;96734.25;4217343;28;5778;-65
2022/03/11 13:45:16;;;;;;;;;;;;;;;10.02;54.93;96730.25;4216437;28;5941;-65
2022/03/11 13:47:19;;;;;;;;;;;;;;;10.19;55.34;96733.41;4216198;28;5758;-65
2022/03/11 13:49:21;;;;;;;;;;;;;;;10.14;54.89;96731.34;4216363;28;5765;-65
2022/03/11 13:51:42;;;;;;;;;;;;;;;10.11;54.91;96736.22;4216588;28;5755;-65
2022/03/11 13:53:43;;;;;;;;;;;;;;;10.12;55.00;96733.38;4216562;28;5753;-65
2022/03/11 13:55:45;;;;;;;;;;;;;;;10.09;54.64;96741.69;4216393;28;5884;-65
2022/03/11 13:57:46;;;;;;;;;;;;;;;10.13;54.91;96734.19;4225872;28;5810;-63
2022/03/11 13:59:52;;;;;;;;;;;;;;;10.15;54.90;96745.38;4206841;28;5841;-58
2022/03/11 14:01:54;;;;;;;;;;;;;;;10.08;54.52;96736.59;4207268;28;5795;-59
2022/03/11 14:03:56;;;;;;;;;;;;;;;10.17;55.11;96738.09;4206483;28;5771;-59
2022/03/11 14:05:59;;;;;;;;;;;;;;;10.20;55.06;96738.53;4199824;28;5802;-59
2022/03/11 14:08:26;;;;;;;;;;;;;;;10.20;55.20;96740.34;4199135;28;6455;-65
2022/03/11 14:10:28;;;;;;;;;;;;;;;10.18;55.36;96748.44;4205807;28;5790;-66
2022/03/11 14:12:30;;;;;;;;;;;;;;;10.33;55.44;96740.47;4230234;28;5744;-66
2022/03/11 14:14:34;;;;;;;;;;;;;;;10.37;55.20;96741.72;4199036;28;5895;-64
2022/03/11 14:16:36;;;;;;;;;;;;;;;10.44;55.48;96739.94;4199058;28;5850;-66
2022/03/11 14:18:38;;;;;;;;;;;;;;;10.50;54.91;96741.81;4198290;28;5780;-66
2022/03/11 14:20:45;;;;;;;;;;;;;;;10.44;54.19;96737.31;4201326;28;5791;-66
2022/03/11 14:22:46;;;;;;;;;;;;;;;10.36;55.12;96734.00;4205069;28;5986;-67
2022/03/11 14:24:48;;;;;;;;;;;;;;;10.49;54.77;96732.25;4227626;28;5858;-66
2022/03/11 14:26:50;;;;;;;;;;;;;;;10.50;54.02;96736.50;4212607;28;5858;-67
2022/03/11 14:28:52;;;;;;;;;;;;;;;10.51;54.31;96737.34;4213249;28;5789;-66
2022/03/11 14:30:54;;;;;;;;;;;;;;;10.47;53.97;96744.84;4197897;28;5795;-66
2022/03/11 14:32:55;;;;;;;;;;;;;;;10.45;54.05;96741.56;4198021;28;5839;-68
2022/03/11 14:34:57;;;;;;;;;;;;;;;10.54;54.47;96736.16;4199148;28;6497;-67
2022/03/11 14:37:03;;;;;;;;;;;;;;;10.48;53.97;96727.97;4198269;28;5787;-67
2022/03/11 14:39:05;;;;;;;;;;;;;;;10.63;54.31;96727.03;4209258;28;5772;-67
2022/03/11 14:41:07;;;;;;;;;;;;;;;10.67;53.40;96725.66;4223374;28;5854;-67
2022/03/11 14:43:09;;;;;;;;;;;;;;;10.57;54.21;96730.47;4204748;28;5759;-67
2022/03/11 14:45:11;;;;;;;;;;;;;;;10.67;53.80;96737.03;4202409;28;5765;-64
2022/03/11 14:47:14;;;;;;;;;;;;;;;10.81;54.03;96729.16;4203801;28;5778;-65
2022/03/11 14:49:16;;;;;;;;;;;;;;;10.81;54.01;96727.34;4204338;28;5862;-68
2022/03/11 14:51:18;;;;;;;;;;;;;;;10.72;54.21;96731.16;4198374;28;5808;-67
2022/03/11 14:53:22;;;;;;;;;;;;;;;10.75;53.17;96736.84;4196571;28;5890;-63
2022/03/11 14:55:25;;;;;;;;;;;;;;;10.77;53.75;96731.41;4210984;28;5835;-61
2022/03/11 14:57:27;;;;;;;;;;;;;;;10.77;52.79;96723.47;4206071;28;5905;-66
2022/03/11 14:59:29;;;;;;;;;;;;;;;10.88;53.76;96716.81;4206806;28;5806;-64
2022/03/11 15:01:31;;;;;;;;;;;;;;;10.86;53.16;96724.91;4200521;28;5779;-62
2022/03/11 15:03:33;;;;;;;;;;;;;;;11.00;53.31;96715.22;4209899;28;5807;-63
2022/03/11 15:05:36;;;;;;;;;;;;;;;11.01;52.16;96717.69;4225046;28;6125;-63
2022/03/11 15:07:38;;;;;;;;;;;;;;;10.98;52.22;96717.22;4226272;28;5829;-62
2022/03/11 15:09:40;;;;;;;;;;;;;;;11.07;51.79;96721.34;4223559;28;5745;-63
2022/03/11 15:11:42;;;;;;;;;;;;;;;11.05;51.08;96716.25;4221154;28;5096;-64
2022/03/11 15:13:43;;;;;;;;;;;;;;;11.04;49.52;96717.28;4220745;28;5825;-67
2022/03/11 15:15:45;;;;;;;;;;;;;;;11.05;48.43;96723.38;4225766;28;5752;-68
2022/03/11 15:17:47;;;;;;;;;;;;;;;11.18;49.90;96725.25;4220546;28;5128;-67
2022/03/11 15:19:49;;;;;;;;;;;;;;;11.22;49.93;96723.84;4229455;28;7747;-67
2022/03/11 15:21:51;;;;;;;;;;;;;;;11.19;49.40;96725.06;4228329;28;5894;-67
2022/03/11 15:23:52;;;;;;;;;;;;;;;11.14;49.35;96716.91;4222224;28;5787;-67
2022/03/11 15:25:56;;;;;;;;;;;;;;;11.13;50.07;96719.75;4231706;28;5752;-67
2022/03/11 15:27:59;;;;;;;;;;;;;;;11.08;49.97;96718.50;4231475;28;7718;-68
2022/03/11 15:30:01;;;;;;;;;;;;;;;11.15;50.18;96723.00;4217076;28;5857;-66
2022/03/11 15:32:04;;;;;;;;;;;;;;;11.19;50.46;96714.47;4226957;28;5712;-68
2022/03/11 15:34:05;;;;;;;;;;;;;;;11.18;49.63;96706.72;4217115;28;5684;-66
2022/03/11 15:36:07;;;;;;;;;;;;;;;11.14;49.82;96710.78;4233627;28;5775;-67
2022/03/11 15:38:09;;;;;;;;;;;;;;;11.22;50.49;96713.28;4233789;28;6458;-66
2022/03/11 15:40:11;;;;;;;;;;;;;;;11.17;49.74;96710.41;4218855;28;5744;-69
2022/03/11 15:42:14;;;;;;;;;;;;;;;11.15;49.45;96707.13;4225285;28;5732;-67
2022/03/11 15:44:15;;;;;;;;;;;;;;;11.18;49.53;96706.72;4220692;28;5838;-69
2022/03/11 15:46:18;;;;;;;;;;;;;;;11.23;49.92;96702.50;4227667;28;5116;-67
2022/03/11 15:48:20;;;;;;;;;;;;;;;11.23;49.28;96705.13;4222216;28;5744;-66
2022/03/11 15:50:23;;;;;;;;;;;;;;;11.20;49.49;96694.94;4229445;28;5843;-68
2022/03/11 15:52:31;;;;;;;;;;;;;;;11.24;49.44;96703.31;4218121;28;5662;-68
2022/03/11 15:54:33;;;;;;;;;;;;;;;11.28;49.92;96699.22;4216468;28;6317;-70
2022/03/11 15:56:38;;;;;;;;;;;;;;;11.32;49.49;96695.16;4204810;28;5926;-66
2022/03/11 15:58:40;;;;;;;;;;;;;;;11.34;49.93;96701.09;4197560;28;5740;-67
2022/03/11 16:00:41;;;;;;;;;;;;;;;11.29;49.67;96695.56;4213798;28;5692;-67
2022/03/11 16:02:44;;;;;;;;;;;;;;;11.35;50.23;96694.78;4216260;28;5789;-76
2022/03/11 16:04:46;;;;;;;;;;;;;;;11.31;49.85;96693.53;4205274;28;5823;-66
2022/03/11 16:06:49;;;;;;;;;;;;;;;11.36;50.26;96688.47;4222539;28;5850;-75
2022/03/11 16:08:51;;;;;;;;;;;;;;;11.36;50.12;96689.28;4224475;28;5733;-77